sensor_id;sensor_type;location;lat;lon;timestamp;temperature;humidity
782;DHT22;374;52.568;13.402;2023-09-19T00:00:38;21.70;99.90
782;DHT22;374;52.568;13.402;2023-09-19T00:03:03;21.70;99.90
782;DHT22;374;52.568;13.402;2023-09-19T00:05:34;21.70;99.90
782;DHT22;374;52.568;13.402;2023-09-19T00:08:01;21.70;99.90
782;DHT22;374;52.568;13.402;2023-09-19T00:10:30;21.70;99.90
782;DHT22;374;52.568;13.402;2023-09-19T00:13:01;21.70;99.90
782;DHT22;374;52.568;13.402;2023-09-19T00:15:31;21.70;99.90
782;DHT22;374;52.568;13.402;2023-09-19T00:18:01;21.60;99.90
782;DHT22;374;52.568;13.402;2023-09-19T00:20:26;21.60;99.90
782;DHT22;374;52.568;13.402;2023-09-19T00:22:52;21.60;99.90
782;DHT22;374;52.568;13.402;2023-09-19T00:25:19;21.60;99.90
782;DHT22;374;52.568;13.402;2023-09-19T00:27:45;21.60;99.90
782;DHT22;374;52.568;13.402;2023-09-19T00:30:13;21.60;99.90
782;DHT22;374;52.568;13.402;2023-09-19T00:32:45;21.50;99.90
782;DHT22;374;52.568;13.402;2023-09-19T00:35:13;21.50;99.90
782;DHT22;374;52.568;13.402;2023-09-19T00:37:39;21.50;99.90
782;DHT22;374;52.568;13.402;2023-09-19T00:40:06;21.50;99.90
782;DHT22;374;52.568;13.402;2023-09-19T00:42:34;21.50;99.90
782;DHT22;374;52.568;13.402;2023-09-19T00:45:03;21.50;99.90
782;DHT22;374;52.568;13.402;2023-09-19T00:47:30;21.50;99.90
782;DHT22;374;52.568;13.402;2023-09-19T00:49:56;21.50;99.90
782;DHT22;374;52.568;13.402;2023-09-19T00:52:22;21.50;99.90
782;DHT22;374;52.568;13.402;2023-09-19T00:54:48;21.40;99.90
782;DHT22;374;52.568;13.402;2023-09-19T00:57:14;21.40;99.90
782;DHT22;374;52.568;13.402;2023-09-19T00:59:45;21.40;99.90
782;DHT22;374;52.568;13.402;2023-09-19T01:02:15;21.40;99.90
782;DHT22;374;52.568;13.402;2023-09-19T01:04:41;21.40;99.90
782;DHT22;374;52.568;13.402;2023-09-19T01:07:07;21.40;99.90
782;DHT22;374;52.568;13.402;2023-09-19T01:09:34;21.40;99.90
782;DHT22;374;52.568;13.402;2023-09-19T01:12:02;21.40;99.90
782;DHT22;374;52.568;13.402;2023-09-19T01:14:53;21.40;99.90
782;DHT22;374;52.568;13.402;2023-09-19T01:17:29;21.40;99.90
782;DHT22;374;52.568;13.402;2023-09-19T01:20:30;21.30;99.90
782;DHT22;374;52.568;13.402;2023-09-19T01:23:49;21.30;99.90
782;DHT22;374;52.568;13.402;2023-09-19T01:31:42;21.30;99.90
782;DHT22;374;52.568;13.402;2023-09-19T01:34:09;21.30;99.90
782;DHT22;374;52.568;13.402;2023-09-19T01:36:36;21.30;99.90
782;DHT22;374;52.568;13.402;2023-09-19T01:39:13;21.30;99.90
782;DHT22;374;52.568;13.402;2023-09-19T01:41:58;21.30;99.90
782;DHT22;374;52.568;13.402;2023-09-19T01:45:00;21.20;99.90
782;DHT22;374;52.568;13.402;2023-09-19T01:50:12;21.20;99.90
782;DHT22;374;52.568;13.402;2023-09-19T01:52:59;21.20;99.90
782;DHT22;374;52.568;13.402;2023-09-19T01:55:30;21.20;99.90
782;DHT22;374;52.568;13.402;2023-09-19T01:58:06;21.20;99.90
782;DHT22;374;52.568;13.402;2023-09-19T02:00:35;21.20;99.90
782;DHT22;374;52.568;13.402;2023-09-19T02:03:03;21.20;99.90
782;DHT22;374;52.568;13.402;2023-09-19T02:05:29;21.20;99.90
782;DHT22;374;52.568;13.402;2023-09-19T02:07:55;21.20;99.90
782;DHT22;374;52.568;13.402;2023-09-19T02:10:22;21.20;99.90
782;DHT22;374;52.568;13.402;2023-09-19T02:12:48;21.10;99.90
782;DHT22;374;52.568;13.402;2023-09-19T02:15:15;21.20;99.90
782;DHT22;374;52.568;13.402;2023-09-19T02:17:42;21.10;99.90
782;DHT22;374;52.568;13.402;2023-09-19T02:20:08;21.10;99.90
782;DHT22;374;52.568;13.402;2023-09-19T02:22:36;21.10;99.90
782;DHT22;374;52.568;13.402;2023-09-19T02:25:02;21.10;99.90
782;DHT22;374;52.568;13.402;2023-09-19T02:27:30;21.10;99.90
782;DHT22;374;52.568;13.402;2023-09-19T02:29:56;21.00;99.90
782;DHT22;374;52.568;13.402;2023-09-19T02:32:21;21.10;99.90
782;DHT22;374;52.568;13.402;2023-09-19T02:34:47;21.00;99.90
782;DHT22;374;52.568;13.402;2023-09-19T02:37:12;21.00;99.90
782;DHT22;374;52.568;13.402;2023-09-19T02:39:38;21.00;99.90
782;DHT22;374;52.568;13.402;2023-09-19T02:42:04;21.00;99.90
782;DHT22;374;52.568;13.402;2023-09-19T02:44:30;21.00;99.90
782;DHT22;374;52.568;13.402;2023-09-19T02:46:55;21.00;99.90
782;DHT22;374;52.568;13.402;2023-09-19T02:49:22;20.90;99.90
782;DHT22;374;52.568;13.402;2023-09-19T02:51:48;21.00;99.90
782;DHT22;374;52.568;13.402;2023-09-19T02:54:14;20.90;99.90
782;DHT22;374;52.568;13.402;2023-09-19T02:56:41;20.90;99.90
782;DHT22;374;52.568;13.402;2023-09-19T02:59:06;20.90;99.90
782;DHT22;374;52.568;13.402;2023-09-19T03:01:32;20.90;99.90
782;DHT22;374;52.568;13.402;2023-09-19T03:03:59;20.90;99.90
782;DHT22;374;52.568;13.402;2023-09-19T03:06:24;20.90;99.90
782;DHT22;374;52.568;13.402;2023-09-19T03:08:50;20.90;99.90
782;DHT22;374;52.568;13.402;2023-09-19T03:11:16;20.80;99.90
782;DHT22;374;52.568;13.402;2023-09-19T03:13:50;20.90;99.90
782;DHT22;374;52.568;13.402;2023-09-19T03:16:15;20.80;99.90
782;DHT22;374;52.568;13.402;2023-09-19T03:18:41;20.80;99.90
782;DHT22;374;52.568;13.402;2023-09-19T03:21:07;20.80;99.90
782;DHT22;374;52.568;13.402;2023-09-19T03:23:32;20.80;99.90
782;DHT22;374;52.568;13.402;2023-09-19T03:25:58;20.80;99.90
782;DHT22;374;52.568;13.402;2023-09-19T03:28:24;20.80;99.90
782;DHT22;374;52.568;13.402;2023-09-19T03:31:03;20.80;99.90
782;DHT22;374;52.568;13.402;2023-09-19T03:33:28;20.70;99.90
782;DHT22;374;52.568;13.402;2023-09-19T03:35:56;20.70;99.90
782;DHT22;374;52.568;13.402;2023-09-19T03:38:23;20.70;99.90
782;DHT22;374;52.568;13.402;2023-09-19T03:40:49;20.70;99.90
782;DHT22;374;52.568;13.402;2023-09-19T03:43:14;20.70;99.90
782;DHT22;374;52.568;13.402;2023-09-19T03:45:40;20.70;99.90
782;DHT22;374;52.568;13.402;2023-09-19T03:48:09;20.70;99.90
782;DHT22;374;52.568;13.402;2023-09-19T03:50:35;20.70;99.90
782;DHT22;374;52.568;13.402;2023-09-19T03:53:01;20.70;99.90
782;DHT22;374;52.568;13.402;2023-09-19T03:55:27;20.60;99.90
782;DHT22;374;52.568;13.402;2023-09-19T03:57:53;20.70;99.90
782;DHT22;374;52.568;13.402;2023-09-19T04:00:19;20.60;99.90
782;DHT22;374;52.568;13.402;2023-09-19T04:02:47;20.60;99.90
782;DHT22;374;52.568;13.402;2023-09-19T04:05:13;20.60;99.90
782;DHT22;374;52.568;13.402;2023-09-19T04:07:39;20.50;99.90
782;DHT22;374;52.568;13.402;2023-09-19T04:10:04;20.60;99.90
782;DHT22;374;52.568;13.402;2023-09-19T04:12:31;20.60;99.90
782;DHT22;374;52.568;13.402;2023-09-19T04:14:57;20.50;99.90
782;DHT22;374;52.568;13.402;2023-09-19T04:17:23;20.50;99.90
782;DHT22;374;52.568;13.402;2023-09-19T04:19:49;20.50;99.90
782;DHT22;374;52.568;13.402;2023-09-19T04:22:16;20.50;99.90
782;DHT22;374;52.568;13.402;2023-09-19T04:24:42;20.50;99.90
782;DHT22;374;52.568;13.402;2023-09-19T04:27:08;20.50;99.90
782;DHT22;374;52.568;13.402;2023-09-19T04:29:35;20.40;99.90
782;DHT22;374;52.568;13.402;2023-09-19T04:32:00;20.40;99.90
782;DHT22;374;52.568;13.402;2023-09-19T04:34:26;20.40;99.90
782;DHT22;374;52.568;13.402;2023-09-19T04:36:51;20.40;99.90
782;DHT22;374;52.568;13.402;2023-09-19T04:39:18;20.30;99.90
782;DHT22;374;52.568;13.402;2023-09-19T04:41:43;20.40;99.90
782;DHT22;374;52.568;13.402;2023-09-19T04:44:13;20.30;99.90
782;DHT22;374;52.568;13.402;2023-09-19T04:46:39;20.30;99.90
782;DHT22;374;52.568;13.402;2023-09-19T04:49:04;20.30;99.90
782;DHT22;374;52.568;13.402;2023-09-19T04:51:30;20.30;99.90
782;DHT22;374;52.568;13.402;2023-09-19T04:53:59;20.30;99.90
782;DHT22;374;52.568;13.402;2023-09-19T04:56:25;20.30;99.90
782;DHT22;374;52.568;13.402;2023-09-19T04:58:50;20.20;99.90
782;DHT22;374;52.568;13.402;2023-09-19T05:01:16;20.20;99.90
782;DHT22;374;52.568;13.402;2023-09-19T05:03:41;20.30;99.90
782;DHT22;374;52.568;13.402;2023-09-19T05:06:07;20.20;99.90
782;DHT22;374;52.568;13.402;2023-09-19T05:08:33;20.20;99.90
782;DHT22;374;52.568;13.402;2023-09-19T05:11:01;20.20;99.90
782;DHT22;374;52.568;13.402;2023-09-19T05:13:27;20.20;99.90
782;DHT22;374;52.568;13.402;2023-09-19T05:15:52;20.20;99.90
782;DHT22;374;52.568;13.402;2023-09-19T05:18:18;20.20;99.90
782;DHT22;374;52.568;13.402;2023-09-19T05:20:46;20.20;99.90
782;DHT22;374;52.568;13.402;2023-09-19T05:23:11;20.20;99.90
782;DHT22;374;52.568;13.402;2023-09-19T05:25:38;20.10;99.90
782;DHT22;374;52.568;13.402;2023-09-19T05:28:05;20.10;99.90
782;DHT22;374;52.568;13.402;2023-09-19T05:30:31;20.10;99.90
782;DHT22;374;52.568;13.402;2023-09-19T05:32:57;20.10;99.90
782;DHT22;374;52.568;13.402;2023-09-19T05:35:24;20.10;99.90
782;DHT22;374;52.568;13.402;2023-09-19T05:37:53;20.10;99.90
782;DHT22;374;52.568;13.402;2023-09-19T05:40:20;20.10;99.90
782;DHT22;374;52.568;13.402;2023-09-19T05:42:46;20.10;99.90
782;DHT22;374;52.568;13.402;2023-09-19T05:45:13;20.10;99.90
782;DHT22;374;52.568;13.402;2023-09-19T05:47:39;20.00;99.90
782;DHT22;374;52.568;13.402;2023-09-19T05:50:06;20.10;99.90
782;DHT22;374;52.568;13.402;2023-09-19T05:52:37;20.10;99.90
782;DHT22;374;52.568;13.402;2023-09-19T05:55:04;20.10;99.90
782;DHT22;374;52.568;13.402;2023-09-19T05:57:32;20.00;99.90
782;DHT22;374;52.568;13.402;2023-09-19T05:59:58;20.00;99.90
782;DHT22;374;52.568;13.402;2023-09-19T06:02:23;20.00;99.90
782;DHT22;374;52.568;13.402;2023-09-19T06:04:48;20.00;99.90
782;DHT22;374;52.568;13.402;2023-09-19T06:07:14;20.00;99.90
782;DHT22;374;52.568;13.402;2023-09-19T06:09:41;20.00;99.90
782;DHT22;374;52.568;13.402;2023-09-19T06:12:07;20.00;99.90
782;DHT22;374;52.568;13.402;2023-09-19T06:14:32;20.00;99.90
782;DHT22;374;52.568;13.402;2023-09-19T06:16:58;19.90;99.90
782;DHT22;374;52.568;13.402;2023-09-19T06:19:25;19.90;99.90
782;DHT22;374;52.568;13.402;2023-09-19T06:21:52;19.90;99.90
782;DHT22;374;52.568;13.402;2023-09-19T06:24:19;19.90;99.90
782;DHT22;374;52.568;13.402;2023-09-19T06:26:45;19.90;99.90
782;DHT22;374;52.568;13.402;2023-09-19T06:29:10;19.90;99.90
782;DHT22;374;52.568;13.402;2023-09-19T06:31:38;19.90;99.90
782;DHT22;374;52.568;13.402;2023-09-19T06:34:04;19.90;99.90
782;DHT22;374;52.568;13.402;2023-09-19T06:36:29;19.90;99.90
782;DHT22;374;52.568;13.402;2023-09-19T06:38:55;19.90;99.90
782;DHT22;374;52.568;13.402;2023-09-19T06:41:20;19.90;99.90
782;DHT22;374;52.568;13.402;2023-09-19T06:43:50;19.90;99.90
782;DHT22;374;52.568;13.402;2023-09-19T06:46:18;19.90;99.90
782;DHT22;374;52.568;13.402;2023-09-19T06:48:44;19.90;99.90
782;DHT22;374;52.568;13.402;2023-09-19T06:51:09;19.90;99.90
782;DHT22;374;52.568;13.402;2023-09-19T06:53:35;19.90;99.90
782;DHT22;374;52.568;13.402;2023-09-19T06:56:02;19.90;99.90
782;DHT22;374;52.568;13.402;2023-09-19T06:58:27;19.90;99.90
782;DHT22;374;52.568;13.402;2023-09-19T07:00:53;19.90;99.90
782;DHT22;374;52.568;13.402;2023-09-19T07:03:19;19.90;99.90
782;DHT22;374;52.568;13.402;2023-09-19T07:05:48;19.90;99.90
782;DHT22;374;52.568;13.402;2023-09-19T07:08:14;19.90;99.90
782;DHT22;374;52.568;13.402;2023-09-19T07:10:41;19.90;99.90
782;DHT22;374;52.568;13.402;2023-09-19T07:13:13;19.90;99.90
782;DHT22;374;52.568;13.402;2023-09-19T07:15:42;19.90;99.90
782;DHT22;374;52.568;13.402;2023-09-19T07:18:13;19.90;99.90
782;DHT22;374;52.568;13.402;2023-09-19T07:20:40;19.90;99.90
782;DHT22;374;52.568;13.402;2023-09-19T07:23:11;19.90;99.90
782;DHT22;374;52.568;13.402;2023-09-19T07:25:39;19.90;99.90
782;DHT22;374;52.568;13.402;2023-09-19T07:28:05;19.90;99.90
782;DHT22;374;52.568;13.402;2023-09-19T07:30:30;19.90;99.90
782;DHT22;374;52.568;13.402;2023-09-19T07:32:56;19.90;99.90
782;DHT22;374;52.568;13.402;2023-09-19T07:35:21;19.90;99.90
782;DHT22;374;52.568;13.402;2023-09-19T07:37:48;19.90;99.90
782;DHT22;374;52.568;13.402;2023-09-19T07:40:17;19.90;99.90
782;DHT22;374;52.568;13.402;2023-09-19T07:42:42;19.90;99.90
782;DHT22;374;52.568;13.402;2023-09-19T07:45:11;19.90;99.90
782;DHT22;374;52.568;13.402;2023-09-19T07:47:43;19.90;99.90
782;DHT22;374;52.568;13.402;2023-09-19T07:50:09;19.90;99.90
782;DHT22;374;52.568;13.402;2023-09-19T07:52:35;19.90;99.90
782;DHT22;374;52.568;13.402;2023-09-19T07:55:00;19.90;99.90
782;DHT22;374;52.568;13.402;2023-09-19T07:57:27;19.90;99.90
782;DHT22;374;52.568;13.402;2023-09-19T07:59:54;19.90;99.90
782;DHT22;374;52.568;13.402;2023-09-19T08:02:19;19.90;99.90
782;DHT22;374;52.568;13.402;2023-09-19T08:04:46;19.90;99.90
782;DHT22;374;52.568;13.402;2023-09-19T08:07:12;19.90;99.90
782;DHT22;374;52.568;13.402;2023-09-19T08:09:41;19.90;99.90
782;DHT22;374;52.568;13.402;2023-09-19T08:12:11;19.90;99.90
782;DHT22;374;52.568;13.402;2023-09-19T08:14:37;19.90;99.90
782;DHT22;374;52.568;13.402;2023-09-19T08:17:07;19.90;99.90
782;DHT22;374;52.568;13.402;2023-09-19T08:19:33;19.90;99.90
782;DHT22;374;52.568;13.402;2023-09-19T08:21:59;19.90;99.90
782;DHT22;374;52.568;13.402;2023-09-19T08:24:29;19.90;99.90
782;DHT22;374;52.568;13.402;2023-09-19T08:26:55;19.90;99.90
782;DHT22;374;52.568;13.402;2023-09-19T08:29:21;19.90;99.90
782;DHT22;374;52.568;13.402;2023-09-19T08:31:56;19.90;99.90
782;DHT22;374;52.568;13.402;2023-09-19T08:34:23;19.90;99.90
782;DHT22;374;52.568;13.402;2023-09-19T08:36:52;19.90;99.90
782;DHT22;374;52.568;13.402;2023-09-19T08:39:22;19.90;99.90
782;DHT22;374;52.568;13.402;2023-09-19T08:42:00;19.90;99.90
782;DHT22;374;52.568;13.402;2023-09-19T08:44:26;19.90;99.90
782;DHT22;374;52.568;13.402;2023-09-19T08:47:03;19.90;99.90
782;DHT22;374;52.568;13.402;2023-09-19T08:49:39;20.00;99.90
782;DHT22;374;52.568;13.402;2023-09-19T08:52:22;19.90;99.90
782;DHT22;374;52.568;13.402;2023-09-19T08:54:52;19.90;99.90
782;DHT22;374;52.568;13.402;2023-09-19T08:57:19;19.90;99.90
782;DHT22;374;52.568;13.402;2023-09-19T08:59:48;20.00;99.90
782;DHT22;374;52.568;13.402;2023-09-19T09:02:16;19.90;99.90
782;DHT22;374;52.568;13.402;2023-09-19T09:04:45;20.00;99.90
782;DHT22;374;52.568;13.402;2023-09-19T09:07:12;20.00;99.90
782;DHT22;374;52.568;13.402;2023-09-19T09:09:39;19.90;99.90
782;DHT22;374;52.568;13.402;2023-09-19T09:12:12;20.00;99.90
782;DHT22;374;52.568;13.402;2023-09-19T09:14:39;20.00;99.90
782;DHT22;374;52.568;13.402;2023-09-19T09:17:05;20.00;99.90
782;DHT22;374;52.568;13.402;2023-09-19T09:19:31;20.00;99.90
782;DHT22;374;52.568;13.402;2023-09-19T09:22:09;20.00;99.90
782;DHT22;374;52.568;13.402;2023-09-19T09:24:34;20.00;99.90
782;DHT22;374;52.568;13.402;2023-09-19T09:27:06;20.00;99.90
782;DHT22;374;52.568;13.402;2023-09-19T09:29:49;20.00;99.90
782;DHT22;374;52.568;13.402;2023-09-19T09:32:28;20.00;99.90
782;DHT22;374;52.568;13.402;2023-09-19T09:34:59;20.00;99.90
782;DHT22;374;52.568;13.402;2023-09-19T09:37:25;20.10;99.90
782;DHT22;374;52.568;13.402;2023-09-19T09:39:52;20.10;99.90
782;DHT22;374;52.568;13.402;2023-09-19T09:42:34;20.10;99.90
782;DHT22;374;52.568;13.402;2023-09-19T09:45:20;20.10;99.90
782;DHT22;374;52.568;13.402;2023-09-19T09:47:54;20.10;99.90
782;DHT22;374;52.568;13.402;2023-09-19T09:52:55;20.10;99.90
782;DHT22;374;52.568;13.402;2023-09-19T09:55:28;20.10;99.90
782;DHT22;374;52.568;13.402;2023-09-19T09:58:21;20.10;99.90
782;DHT22;374;52.568;13.402;2023-09-19T10:00:58;20.10;99.90
782;DHT22;374;52.568;13.402;2023-09-19T10:03:33;20.10;99.90
782;DHT22;374;52.568;13.402;2023-09-19T10:06:00;20.10;99.90
782;DHT22;374;52.568;13.402;2023-09-19T10:08:31;20.10;99.90
782;DHT22;374;52.568;13.402;2023-09-19T10:11:26;20.20;99.90
782;DHT22;374;52.568;13.402;2023-09-19T10:13:55;20.10;99.90
782;DHT22;374;52.568;13.402;2023-09-19T10:16:23;20.20;99.90
782;DHT22;374;52.568;13.402;2023-09-19T10:18:51;20.20;99.90
782;DHT22;374;52.568;13.402;2023-09-19T10:21:19;20.20;99.90
782;DHT22;374;52.568;13.402;2023-09-19T10:23:48;20.10;99.90
782;DHT22;374;52.568;13.402;2023-09-19T10:26:18;20.20;99.90
782;DHT22;374;52.568;13.402;2023-09-19T10:28:47;20.20;99.90
782;DHT22;374;52.568;13.402;2023-09-19T10:31:21;20.20;99.90
782;DHT22;374;52.568;13.402;2023-09-19T10:33:52;20.30;99.90
782;DHT22;374;52.568;13.402;2023-09-19T10:36:24;20.30;99.90
782;DHT22;374;52.568;13.402;2023-09-19T10:38:57;20.30;99.90
782;DHT22;374;52.568;13.402;2023-09-19T10:41:24;20.30;99.90
782;DHT22;374;52.568;13.402;2023-09-19T10:43:51;20.30;99.90
782;DHT22;374;52.568;13.402;2023-09-19T10:46:19;20.20;99.90
782;DHT22;374;52.568;13.402;2023-09-19T10:48:45;20.30;99.90
782;DHT22;374;52.568;13.402;2023-09-19T10:51:19;20.20;99.90
782;DHT22;374;52.568;13.402;2023-09-19T10:53:51;20.20;99.90
782;DHT22;374;52.568;13.402;2023-09-19T10:56:23;20.20;99.90
782;DHT22;374;52.568;13.402;2023-09-19T10:58:50;20.30;99.90
782;DHT22;374;52.568;13.402;2023-09-19T11:01:16;20.30;99.90
782;DHT22;374;52.568;13.402;2023-09-19T11:03:43;20.30;99.90
782;DHT22;374;52.568;13.402;2023-09-19T11:06:18;20.30;99.90
782;DHT22;374;52.568;13.402;2023-09-19T11:30:32;20.30;99.90
782;DHT22;374;52.568;13.402;2023-09-19T11:46:33;20.40;99.90
782;DHT22;374;52.568;13.402;2023-09-19T11:49:06;20.40;99.90
782;DHT22;374;52.568;13.402;2023-09-19T11:51:43;20.40;99.90
782;DHT22;374;52.568;13.402;2023-09-19T11:54:11;20.40;99.90
782;DHT22;374;52.568;13.402;2023-09-19T11:56:44;20.40;99.90
782;DHT22;374;52.568;13.402;2023-09-19T11:59:11;20.40;98.60
782;DHT22;374;52.568;13.402;2023-09-19T12:01:37;20.40;97.80
782;DHT22;374;52.568;13.402;2023-09-19T12:04:06;20.30;99.00
782;DHT22;374;52.568;13.402;2023-09-19T12:06:33;20.40;98.30
782;DHT22;374;52.568;13.402;2023-09-19T12:09:00;20.40;99.30
782;DHT22;374;52.568;13.402;2023-09-19T12:11:29;20.40;98.00
782;DHT22;374;52.568;13.402;2023-09-19T12:13:59;20.30;97.00
782;DHT22;374;52.568;13.402;2023-09-19T12:16:26;20.40;98.20
782;DHT22;374;52.568;13.402;2023-09-19T12:18:56;20.40;98.10
782;DHT22;374;52.568;13.402;2023-09-19T12:26:30;20.40;97.30
782;DHT22;374;52.568;13.402;2023-09-19T12:29:02;20.40;95.80
782;DHT22;374;52.568;13.402;2023-09-19T12:31:30;20.40;95.90
782;DHT22;374;52.568;13.402;2023-09-19T12:34:01;20.40;96.40
782;DHT22;374;52.568;13.402;2023-09-19T12:36:27;20.40;97.40
782;DHT22;374;52.568;13.402;2023-09-19T12:38:56;20.50;96.50
782;DHT22;374;52.568;13.402;2023-09-19T12:41:25;20.40;96.10
782;DHT22;374;52.568;13.402;2023-09-19T12:43:54;20.40;96.20
782;DHT22;374;52.568;13.402;2023-09-19T12:46:21;20.40;95.10
782;DHT22;374;52.568;13.402;2023-09-19T12:49:19;20.50;95.10
782;DHT22;374;52.568;13.402;2023-09-19T12:51:48;20.50;96.30
782;DHT22;374;52.568;13.402;2023-09-19T12:54:14;20.50;94.90
782;DHT22;374;52.568;13.402;2023-09-19T12:56:43;20.40;94.10
782;DHT22;374;52.568;13.402;2023-09-19T12:59:13;20.50;95.00
782;DHT22;374;52.568;13.402;2023-09-19T13:01:40;20.50;95.10
782;DHT22;374;52.568;13.402;2023-09-19T13:04:13;20.50;95.50
782;DHT22;374;52.568;13.402;2023-09-19T13:06:40;20.50;94.70
782;DHT22;374;52.568;13.402;2023-09-19T13:09:09;20.50;94.70
782;DHT22;374;52.568;13.402;2023-09-19T13:11:37;20.50;95.10
782;DHT22;374;52.568;13.402;2023-09-19T13:14:23;20.50;93.90
782;DHT22;374;52.568;13.402;2023-09-19T13:17:09;20.50;94.40
782;DHT22;374;52.568;13.402;2023-09-19T13:19:48;20.50;94.90
782;DHT22;374;52.568;13.402;2023-09-19T13:25:04;20.50;94.70
782;DHT22;374;52.568;13.402;2023-09-19T13:27:32;20.50;95.30
782;DHT22;374;52.568;13.402;2023-09-19T13:29:58;20.50;95.20
782;DHT22;374;52.568;13.402;2023-09-19T13:32:24;20.50;94.90
782;DHT22;374;52.568;13.402;2023-09-19T13:34:50;20.50;93.80
782;DHT22;374;52.568;13.402;2023-09-19T13:37:16;20.60;94.40
782;DHT22;374;52.568;13.402;2023-09-19T13:39:43;20.60;94.10
782;DHT22;374;52.568;13.402;2023-09-19T13:42:13;20.60;94.30
782;DHT22;374;52.568;13.402;2023-09-19T13:44:38;20.60;93.70
782;DHT22;374;52.568;13.402;2023-09-19T13:47:04;20.60;93.90
782;DHT22;374;52.568;13.402;2023-09-19T13:49:35;20.60;93.60
782;DHT22;374;52.568;13.402;2023-09-19T13:52:01;20.60;93.70
782;DHT22;374;52.568;13.402;2023-09-19T13:54:28;20.60;94.00
782;DHT22;374;52.568;13.402;2023-09-19T13:56:54;20.60;94.40
782;DHT22;374;52.568;13.402;2023-09-19T13:59:19;20.60;94.10
782;DHT22;374;52.568;13.402;2023-09-19T14:01:49;20.60;94.40
782;DHT22;374;52.568;13.402;2023-09-19T14:04:14;20.60;93.90
782;DHT22;374;52.568;13.402;2023-09-19T14:06:42;20.60;93.60
782;DHT22;374;52.568;13.402;2023-09-19T14:09:07;20.60;93.40
782;DHT22;374;52.568;13.402;2023-09-19T14:11:33;20.60;93.50
782;DHT22;374;52.568;13.402;2023-09-19T14:13:59;20.60;93.90
782;DHT22;374;52.568;13.402;2023-09-19T14:16:25;20.60;93.50
782;DHT22;374;52.568;13.402;2023-09-19T14:18:55;20.60;93.90
782;DHT22;374;52.568;13.402;2023-09-19T14:21:20;20.60;94.10
782;DHT22;374;52.568;13.402;2023-09-19T14:23:46;20.60;93.50
782;DHT22;374;52.568;13.402;2023-09-19T14:26:11;20.60;93.50
782;DHT22;374;52.568;13.402;2023-09-19T14:28:37;20.70;93.60
782;DHT22;374;52.568;13.402;2023-09-19T14:31:07;20.70;93.70
782;DHT22;374;52.568;13.402;2023-09-19T14:33:32;20.70;93.50
782;DHT22;374;52.568;13.402;2023-09-19T14:35:58;20.70;93.80
782;DHT22;374;52.568;13.402;2023-09-19T14:38:23;20.70;93.50
782;DHT22;374;52.568;13.402;2023-09-19T14:41:02;20.70;93.70
782;DHT22;374;52.568;13.402;2023-09-19T14:43:28;20.70;93.90
782;DHT22;374;52.568;13.402;2023-09-19T14:45:56;20.70;93.50
782;DHT22;374;52.568;13.402;2023-09-19T14:48:22;20.70;93.40
782;DHT22;374;52.568;13.402;2023-09-19T14:50:52;20.70;93.10
782;DHT22;374;52.568;13.402;2023-09-19T14:53:17;20.70;93.40
782;DHT22;374;52.568;13.402;2023-09-19T14:55:43;20.70;93.30
782;DHT22;374;52.568;13.402;2023-09-19T14:58:10;20.70;92.40
782;DHT22;374;52.568;13.402;2023-09-19T15:00:36;20.70;92.50
782;DHT22;374;52.568;13.402;2023-09-19T15:03:01;20.70;93.00
782;DHT22;374;52.568;13.402;2023-09-19T15:05:27;20.70;92.30
782;DHT22;374;52.568;13.402;2023-09-19T15:07:55;20.70;92.10
782;DHT22;374;52.568;13.402;2023-09-19T15:10:22;20.70;92.60
782;DHT22;374;52.568;13.402;2023-09-19T15:12:47;20.70;92.00
782;DHT22;374;52.568;13.402;2023-09-19T15:15:13;20.80;92.10
782;DHT22;374;52.568;13.402;2023-09-19T15:17:39;20.70;92.10
782;DHT22;374;52.568;13.402;2023-09-19T15:20:06;20.70;92.10
782;DHT22;374;52.568;13.402;2023-09-19T15:22:36;20.80;92.70
782;DHT22;374;52.568;13.402;2023-09-19T15:25:02;20.70;92.40
782;DHT22;374;52.568;13.402;2023-09-19T15:27:31;20.80;92.50
782;DHT22;374;52.568;13.402;2023-09-19T15:30:01;20.70;92.20
782;DHT22;374;52.568;13.402;2023-09-19T15:32:28;20.70;92.70
782;DHT22;374;52.568;13.402;2023-09-19T15:34:54;20.70;92.10
782;DHT22;374;52.568;13.402;2023-09-19T15:37:20;20.70;92.30
782;DHT22;374;52.568;13.402;2023-09-19T15:39:48;20.70;92.60
782;DHT22;374;52.568;13.402;2023-09-19T15:42:17;20.80;92.90
782;DHT22;374;52.568;13.402;2023-09-19T15:44:49;20.80;92.40
782;DHT22;374;52.568;13.402;2023-09-19T15:47:17;20.80;92.70
782;DHT22;374;52.568;13.402;2023-09-19T15:49:42;20.80;93.10
782;DHT22;374;52.568;13.402;2023-09-19T15:52:08;20.80;92.60
782;DHT22;374;52.568;13.402;2023-09-19T15:54:34;20.70;92.10
782;DHT22;374;52.568;13.402;2023-09-19T15:57:00;20.70;92.00
782;DHT22;374;52.568;13.402;2023-09-19T15:59:25;20.70;92.20
782;DHT22;374;52.568;13.402;2023-09-19T16:01:51;20.80;93.10
782;DHT22;374;52.568;13.402;2023-09-19T16:04:17;20.80;93.00
782;DHT22;374;52.568;13.402;2023-09-19T16:06:53;20.80;92.70
782;DHT22;374;52.568;13.402;2023-09-19T16:09:19;20.80;92.40
782;DHT22;374;52.568;13.402;2023-09-19T16:11:44;20.80;92.60
782;DHT22;374;52.568;13.402;2023-09-19T16:14:10;20.80;92.20
782;DHT22;374;52.568;13.402;2023-09-19T16:16:36;20.80;92.30
782;DHT22;374;52.568;13.402;2023-09-19T16:19:04;20.80;92.30
782;DHT22;374;52.568;13.402;2023-09-19T16:21:32;20.80;92.30
782;DHT22;374;52.568;13.402;2023-09-19T16:23:59;20.80;92.10
782;DHT22;374;52.568;13.402;2023-09-19T16:26:26;20.80;91.60
782;DHT22;374;52.568;13.402;2023-09-19T16:28:54;20.80;91.70
782;DHT22;374;52.568;13.402;2023-09-19T16:31:21;20.80;91.80
782;DHT22;374;52.568;13.402;2023-09-19T16:33:47;20.80;91.50
782;DHT22;374;52.568;13.402;2023-09-19T16:36:15;20.80;91.80
782;DHT22;374;52.568;13.402;2023-09-19T16:38:41;20.80;91.50
782;DHT22;374;52.568;13.402;2023-09-19T16:41:07;20.80;91.70
782;DHT22;374;52.568;13.402;2023-09-19T16:43:33;20.80;91.10
782;DHT22;374;52.568;13.402;2023-09-19T16:46:01;20.80;91.20
782;DHT22;374;52.568;13.402;2023-09-19T16:48:28;20.80;90.90
782;DHT22;374;52.568;13.402;2023-09-19T16:51:04;20.80;91.10
782;DHT22;374;52.568;13.402;2023-09-19T16:53:31;20.80;90.70
782;DHT22;374;52.568;13.402;2023-09-19T16:56:02;20.80;90.80
782;DHT22;374;52.568;13.402;2023-09-19T16:58:28;20.80;90.70
782;DHT22;374;52.568;13.402;2023-09-19T17:00:55;20.70;90.60
782;DHT22;374;52.568;13.402;2023-09-19T17:03:21;20.70;90.90
782;DHT22;374;52.568;13.402;2023-09-19T17:05:47;20.80;90.70
782;DHT22;374;52.568;13.402;2023-09-19T17:08:14;20.70;90.50
782;DHT22;374;52.568;13.402;2023-09-19T17:10:39;20.70;90.40
782;DHT22;374;52.568;13.402;2023-09-19T17:13:09;20.70;90.40
782;DHT22;374;52.568;13.402;2023-09-19T17:15:36;20.70;90.20
782;DHT22;374;52.568;13.402;2023-09-19T17:18:02;20.80;90.20